Time;durP1;ratioP1;P1;durP2;ratioP2;P2;SDS_P1;SDS_P2;PMS_P1;PMS_P2;Temp;Humidity;BMP_temperature;BMP_pressure;BME280_temperature;BME280_humidity;BME280_pressure;Samples;Min_cycle;Max_cycle;Signal;HPM_P1;HPM_P2
2023/02/03 00:00:47;;;;;;;11.07;4.57;;;6.40;99.90;;;5.73;100.00;99049.47;4962984;28;20049;-68
2023/02/03 00:03:14;;;;;;;12.57;4.93;;;6.40;99.90;;;5.61;100.00;99047.75;4963209;28;20137;-68
2023/02/03 00:05:41;;;;;;;8.50;5.00;;;6.50;99.90;;;5.78;100.00;99045.16;4961837;28;20058;-68
2023/02/03 00:08:09;;;;;;;9.93;5.10;;;6.40;99.90;;;5.81;100.00;99059.75;4963848;28;20043;-68
2023/02/03 00:10:38;;;;;;;8.52;5.07;;;6.30;99.90;;;5.75;100.00;99052.03;4949733;28;20043;-68
2023/02/03 00:13:06;;;;;;;7.50;4.22;;;6.30;99.90;;;5.69;100.00;99052.88;4963943;28;20046;-68
2023/02/03 00:15:34;;;;;;;11.95;5.70;;;6.30;99.90;;;5.73;100.00;99056.34;4965272;28;20047;-68
2023/02/03 00:18:01;;;;;;;10.82;4.43;;;6.30;99.90;;;5.80;100.00;99063.22;4967261;28;20058;-69
2023/02/03 00:20:28;;;;;;;12.13;5.63;;;6.30;99.90;;;5.78;100.00;99080.38;4965874;28;20054;-68
2023/02/03 00:23:05;;;;;;;11.38;5.68;;;6.30;99.90;;;5.74;100.00;99073.50;4944863;28;20055;-68
2023/02/03 00:25:33;;;;;;;13.65;5.43;;;6.30;99.90;;;5.75;100.00;99073.50;4959065;28;20082;-68
2023/02/03 00:28:00;;;;;;;10.60;5.30;;;6.30;99.90;;;5.68;100.00;99066.63;4959917;28;20043;-68
2023/02/03 00:30:28;;;;;;;9.25;4.63;;;6.30;99.90;;;5.68;100.00;99086.38;4965522;28;20055;-69
2023/02/03 00:32:55;;;;;;;9.10;5.07;;;6.30;99.90;;;5.70;100.00;99094.97;4959862;28;20406;-68
2023/02/03 00:35:22;;;;;;;13.20;5.97;;;6.20;99.90;;;5.64;100.00;99075.22;4962348;28;20054;-68
2023/02/03 00:37:56;;;;;;;13.02;4.32;;;6.30;99.90;;;5.63;100.00;99069.22;4975289;28;20414;-68
2023/02/03 00:40:25;;;;;;;9.10;4.70;;;6.20;99.90;;;5.65;100.00;99051.16;4961313;28;20063;-68
2023/02/03 00:42:53;;;;;;;8.38;4.65;;;6.20;99.90;;;5.69;100.00;99045.16;4963346;28;20079;-68
2023/02/03 00:45:21;;;;;;;7.80;4.57;;;6.10;99.90;;;5.65;100.00;99031.41;4961672;28;20118;-69
2023/02/03 00:47:50;;;;;;;8.15;4.15;;;6.10;99.90;;;5.79;100.00;99035.69;4961468;28;20436;-68
2023/02/03 00:50:17;;;;;;;6.55;4.20;;;6.10;99.90;;;5.65;100.00;99033.13;4961434;28;20478;-68
2023/02/03 00:52:44;;;;;;;10.85;4.07;;;6.10;99.90;;;5.75;100.00;99037.44;4960697;28;20055;-69
2023/02/03 00:55:11;;;;;;;10.82;3.95;;;6.20;99.90;;;5.72;100.00;99042.56;4964021;28;20049;-68
2023/02/03 00:57:38;;;;;;;8.48;3.95;;;6.10;99.90;;;5.84;100.00;99039.16;4957951;28;20047;-69
2023/02/03 01:00:07;;;;;;;10.25;4.15;;;6.20;99.90;;;5.78;100.00;99036.56;4961436;28;20046;-68
2023/02/03 01:02:34;;;;;;;10.48;4.10;;;6.20;99.90;;;5.73;100.00;99051.19;4958454;28;20055;-68
2023/02/03 01:05:02;;;;;;;6.97;3.20;;;6.20;99.90;;;5.87;100.00;99044.31;4961173;28;20051;-68
2023/02/03 01:07:32;;;;;;;11.13;3.13;;;6.20;99.90;;;5.77;100.00;99025.41;4964956;28;20050;-68
2023/02/03 01:09:59;;;;;;;5.72;3.10;;;6.20;99.90;;;5.75;100.00;99023.72;4959392;28;20074;-68
2023/02/03 01:12:29;;;;;;;5.18;3.22;;;6.20;99.90;;;5.69;100.00;99021.97;4959412;28;20062;-68
2023/02/03 01:14:56;;;;;;;5.53;2.75;;;6.20;99.90;;;5.73;100.00;99031.44;4961970;28;20244;-69
2023/02/03 01:17:24;;;;;;;7.65;3.20;;;6.10;99.90;;;5.71;100.00;99030.56;4961100;28;20141;-69
2023/02/03 01:19:51;;;;;;;6.82;2.65;;;6.20;99.90;;;5.71;100.00;99034.88;4959446;28;20047;-68
2023/02/03 01:22:19;;;;;;;6.43;3.13;;;6.10;99.90;;;5.64;100.00;99039.16;4948895;28;20079;-69
2023/02/03 01:24:45;;;;;;;5.18;2.83;;;6.10;99.90;;;5.58;100.00;99042.56;4962817;28;20062;-68
2023/02/03 01:27:12;;;;;;;5.10;2.78;;;6.10;99.90;;;5.65;100.00;99015.09;4960738;28;20051;-68
2023/02/03 01:29:39;;;;;;;5.95;2.58;;;6.10;99.90;;;5.68;100.00;99015.13;4960937;28;20051;-68
2023/02/03 01:32:06;;;;;;;6.95;3.22;;;6.10;99.90;;;5.50;100.00;99005.66;4958864;28;20057;-68
2023/02/03 01:34:33;;;;;;;4.78;2.30;;;6.00;99.90;;;5.50;100.00;99009.97;4959793;28;20531;-68
2023/02/03 01:37:03;;;;;;;4.90;2.75;;;6.10;99.90;;;5.52;100.00;98996.22;4958491;28;20057;-68
2023/02/03 01:39:30;;;;;;;5.00;2.40;;;6.00;99.90;;;5.52;100.00;98997.91;4962998;28;20085;-69
2023/02/03 01:41:57;;;;;;;7.85;2.65;;;6.00;99.90;;;5.51;100.00;98979.03;4958734;28;20070;-69
2023/02/03 01:44:50;;;;;;;6.85;3.00;;;6.00;99.90;;;5.46;100.00;98970.47;4960104;28;20078;-67
2023/02/03 01:47:36;;;;;;;6.90;3.13;;;5.90;99.90;;;5.36;100.00;98954.16;4961700;28;20050;-68
2023/02/03 01:50:31;;;;;;;5.15;3.03;;;5.90;99.90;;;5.42;100.00;98951.56;4961980;28;20524;-68
2023/02/03 01:53:09;;;;;;;4.18;2.40;;;5.90;99.90;;;5.42;100.00;98977.31;4958121;28;20050;-68
2023/02/03 01:55:43;;;;;;;4.90;2.78;;;5.90;99.90;;;5.35;100.00;99005.63;4958279;28;20054;-68
2023/02/03 01:58:20;;;;;;;6.15;3.40;;;5.90;99.90;;;5.35;100.00;98998.75;4979128;28;20053;-68
2023/02/03 02:00:48;;;;;;;5.22;2.92;;;6.00;99.90;;;5.48;100.00;98984.19;4960776;28;20043;-68
2023/02/03 02:03:19;;;;;;;6.00;3.20;;;5.90;99.90;;;5.51;100.00;98985.91;4961516;28;20066;-68
2023/02/03 02:05:53;;;;;;;6.35;2.80;;;5.80;99.90;;;5.46;100.00;98983.34;4959805;28;20046;-69
2023/02/03 02:08:23;;;;;;;8.48;3.25;;;5.80;99.90;;;5.36;100.00;98954.16;4959265;28;20150;-69
2023/02/03 02:10:51;;;;;;;7.07;3.65;;;5.90;99.90;;;5.35;100.00;98957.56;4957819;28;20054;-68
2023/02/03 02:13:19;;;;;;;5.70;3.38;;;5.90;99.90;;;5.46;100.00;98960.16;4959717;28;20564;-68
2023/02/03 02:16:06;;;;;;;4.68;3.17;;;5.90;99.90;;;5.36;100.00;98972.19;4958927;28;20057;-68
2023/02/03 02:18:51;;;;;;;4.80;3.10;;;5.90;99.90;;;5.39;100.00;98971.31;4958670;28;20154;-68
2023/02/03 02:21:27;;;;;;;5.10;2.93;;;5.90;99.90;;;5.38;100.00;98973.03;4959634;28;20066;-67
2023/02/03 02:23:54;;;;;;;7.50;3.30;;;6.00;99.90;;;5.47;100.00;98976.47;4961631;28;20161;-68
2023/02/03 02:26:33;;;;;;;5.60;2.80;;;5.90;99.90;;;5.40;100.00;98981.59;4963310;28;20454;-68
2023/02/03 02:29:33;;;;;;;6.00;3.25;;;5.90;99.90;;;5.43;100.00;98996.22;4970541;28;20513;-69
2023/02/03 02:32:33;;;;;;;5.78;2.80;;;6.00;99.90;;;5.44;100.00;98967.03;4969495;28;20070;-69
2023/02/03 02:35:32;;;;;;;7.10;3.22;;;6.10;99.90;;;5.46;100.00;98988.47;4966076;28;20055;-69
2023/02/03 02:38:04;;;;;;;6.05;3.15;;;6.10;99.90;;;5.46;100.00;98970.47;4970615;28;20054;-69
2023/02/03 02:41:00;;;;;;;5.60;3.58;;;6.10;99.90;;;5.50;100.00;98968.75;4966223;28;20046;-68
2023/02/03 02:43:52;;;;;;;7.35;3.67;;;6.10;99.90;;;5.45;100.00;98984.16;4965051;28;20498;-68
2023/02/03 02:46:30;;;;;;;6.65;3.92;;;6.20;99.90;;;5.51;100.00;98975.59;4964135;28;20419;-68
2023/02/03 02:49:12;;;;;;;7.57;4.22;;;6.10;99.90;;;5.58;100.00;98960.13;4970229;28;20796;-68
2023/02/03 02:51:42;;;;;;;8.82;4.18;;;6.20;99.90;;;5.43;100.00;98955.88;4965533;28;20485;-68
2023/02/03 02:54:15;;;;;;;7.53;3.55;;;6.20;99.90;;;5.51;100.00;98953.28;4973504;28;20047;-68
2023/02/03 02:56:46;;;;;;;6.50;3.70;;;6.20;99.90;;;5.54;100.00;98955.00;4965919;28;21128;-69
2023/02/03 02:59:14;;;;;;;8.55;3.92;;;6.20;99.90;;;5.59;100.00;98961.03;4965211;28;20059;-68
2023/02/03 03:01:41;;;;;;;7.43;3.90;;;6.20;99.90;;;5.70;100.00;98973.88;4966526;28;20059;-68
2023/02/03 03:04:11;;;;;;;7.60;4.20;;;6.10;99.90;;;5.58;100.00;98991.06;4967142;28;20047;-68
2023/02/03 03:06:46;;;;;;;9.02;4.40;;;6.10;99.90;;;5.58;100.00;98993.63;4971233;28;20057;-68
2023/02/03 03:09:24;;;;;;;8.68;4.68;;;6.20;99.90;;;5.63;100.00;99002.25;4969623;28;20536;-68
2023/02/03 03:12:07;;;;;;;8.60;4.15;;;6.30;99.90;;;5.64;100.00;99005.66;4969292;28;20118;-68
2023/02/03 03:14:40;;;;;;;6.65;3.88;;;6.30;99.90;;;5.66;100.00;98991.06;4979358;28;20482;-68
2023/02/03 03:17:10;;;;;;;9.93;3.72;;;6.30;99.90;;;5.62;100.00;98986.78;4965815;28;20458;-68
2023/02/03 03:19:45;;;;;;;8.77;4.80;;;6.30;99.90;;;5.63;100.00;98971.31;4970383;28;20051;-68
2023/02/03 03:22:15;;;;;;;11.05;4.47;;;6.30;99.90;;;5.62;100.00;98982.47;4963473;28;20564;-68
2023/02/03 03:24:57;;;;;;;8.10;4.35;;;6.30;99.90;;;5.71;100.00;99004.81;4955386;28;20043;-68
2023/02/03 03:27:32;;;;;;;8.53;4.17;;;6.40;99.90;;;5.75;100.00;98997.94;4971062;28;20593;-68
2023/02/03 03:30:10;;;;;;;7.88;3.70;;;6.30;99.90;;;5.65;100.00;99013.38;4970062;28;20310;-68
2023/02/03 03:32:38;;;;;;;8.93;3.35;;;6.40;99.90;;;5.76;100.00;98991.91;4968625;28;20046;-68
2023/02/03 03:35:06;;;;;;;8.38;4.20;;;6.40;99.90;;;5.80;100.00;98998.78;4962857;28;20146;-68
2023/02/03 03:37:58;;;;;;;6.97;3.92;;;6.40;99.90;;;5.76;100.00;99002.22;4984128;28;20066;-68
2023/02/03 03:40:40;;;;;;;10.38;4.32;;;6.50;99.90;;;5.89;100.00;99009.09;4958376;28;20138;-68
2023/02/03 03:43:17;;;;;;;10.57;4.28;;;6.40;99.90;;;5.80;100.00;98991.91;4961302;28;20395;-67
2023/02/03 03:46:01;;;;;;;12.23;4.82;;;6.50;99.90;;;5.77;100.00;98963.59;4978217;28;20126;-68
2023/02/03 03:48:56;;;;;;;7.20;3.92;;;6.50;99.90;;;5.79;100.00;98948.97;4966777;28;20501;-67
2023/02/03 03:51:43;;;;;;;9.45;3.40;;;6.40;99.90;;;5.87;100.00;98943.81;4971404;28;20047;-68
2023/02/03 03:54:16;;;;;;;7.32;4.35;;;6.40;99.90;;;5.65;100.00;98948.97;4974412;28;20420;-68
2023/02/03 03:56:56;;;;;;;9.57;4.18;;;6.40;99.90;;;5.83;100.00;98931.78;4977552;28;20173;-68
2023/02/03 03:59:26;;;;;;;8.95;4.63;;;6.40;99.90;;;5.80;100.00;98936.97;4965135;28;20089;-67
2023/02/03 04:01:53;;;;;;;13.02;4.78;;;6.40;99.90;;;5.72;100.00;98941.25;4976896;28;20054;-68
2023/02/03 04:04:23;;;;;;;9.98;4.57;;;6.50;99.90;;;5.80;100.00;98942.09;4977939;28;20075;-68
2023/02/03 04:06:53;;;;;;;9.60;5.15;;;6.40;99.90;;;5.82;100.00;98924.94;4965525;28;20054;-68
2023/02/03 04:09:20;;;;;;;14.13;5.93;;;6.40;99.90;;;5.75;100.00;98902.63;4962263;28;20061;-68
2023/02/03 04:12:03;;;;;;;11.65;5.53;;;6.40;99.90;;;5.72;100.00;98898.31;4950266;28;20149;-68
2023/02/03 04:14:37;;;;;;;9.85;5.18;;;6.30;99.90;;;5.66;100.00;98912.06;4976973;28;20057;-68
2023/02/03 04:17:05;;;;;;;10.43;5.78;;;6.20;99.90;;;5.78;100.00;98929.22;4959599;28;20145;-67
2023/02/03 04:19:32;;;;;;;7.03;4.47;;;6.20;99.90;;;5.74;100.00;98952.41;4980001;28;20065;-68
2023/02/03 04:21:59;;;;;;;11.98;5.90;;;6.20;99.90;;;5.68;100.00;98954.97;4966134;28;20430;-67
2023/02/03 04:24:26;;;;;;;9.55;5.47;;;6.30;99.90;;;5.68;100.00;98942.09;4962753;28;20142;-68
2023/02/03 04:26:53;;;;;;;8.25;4.97;;;6.30;99.90;;;5.79;100.00;98953.25;4963540;28;20043;-68
2023/02/03 04:29:20;;;;;;;12.05;5.20;;;6.20;99.90;;;5.67;100.00;98936.09;4960974;28;20051;-67
2023/02/03 04:31:46;;;;;;;7.30;4.57;;;6.20;99.90;;;5.70;100.00;98936.09;4972805;28;20050;-68
2023/02/03 04:34:13;;;;;;;7.95;4.63;;;6.30;99.90;;;5.75;100.00;98939.53;4960717;28;20051;-68
2023/02/03 04:36:40;;;;;;;9.18;5.20;;;6.20;99.90;;;5.72;100.00;98942.09;4964108;28;20469;-68
2023/02/03 04:39:07;;;;;;;14.57;5.22;;;6.20;99.90;;;5.69;100.00;98957.56;4960538;28;20056;-68
2023/02/03 04:41:34;;;;;;;6.47;4.50;;;6.20;99.90;;;5.71;100.00;98944.69;4961363;28;20077;-68
2023/02/03 04:44:01;;;;;;;6.50;4.55;;;6.20;99.90;;;5.60;100.00;98961.00;4964064;28;20170;-68
2023/02/03 04:46:28;;;;;;;10.02;4.88;;;6.10;99.90;;;5.66;100.00;98950.72;4962196;28;20122;-68
2023/02/03 04:48:55;;;;;;;9.05;4.75;;;6.20;99.90;;;5.57;100.00;98955.00;4962869;28;20091;-68
2023/02/03 04:51:22;;;;;;;13.52;5.25;;;6.10;99.90;;;5.61;100.00;98967.00;4964283;28;20047;-67
2023/02/03 04:53:49;;;;;;;11.50;5.60;;;6.10;99.90;;;5.66;100.00;98996.22;4960085;28;20054;-68
2023/02/03 04:56:16;;;;;;;10.27;5.57;;;6.10;99.90;;;5.66;100.00;98998.81;4960583;28;20133;-68
2023/02/03 04:58:43;;;;;;;8.15;4.63;;;6.10;99.90;;;5.57;100.00;98983.34;4960084;28;20055;-68
2023/02/03 05:01:10;;;;;;;10.10;5.10;;;6.10;99.90;;;5.52;100.00;98982.47;4957300;28;20098;-67
2023/02/03 05:03:37;;;;;;;10.38;6.07;;;6.10;99.90;;;5.51;100.00;98983.34;4962845;28;20153;-67
2023/02/03 05:06:05;;;;;;;11.13;5.95;;;6.00;99.90;;;5.51;100.00;98960.16;4962180;28;20043;-68
2023/02/03 05:08:32;;;;;;;7.50;4.63;;;6.00;99.90;;;5.46;100.00;98952.44;4980353;28;20117;-68
2023/02/03 05:10:59;;;;;;;9.20;5.18;;;6.00;99.90;;;5.51;100.00;98958.44;4963497;28;20061;-68
2023/02/03 05:13:28;;;;;;;10.18;5.53;;;6.00;99.90;;;5.55;100.00;98972.19;4959949;28;20121;-68
2023/02/03 05:15:55;;;;;;;11.57;6.03;;;5.90;99.90;;;5.54;100.00;98978.19;4961851;28;20054;-68
2023/02/03 05:18:23;;;;;;;8.77;4.75;;;5.90;99.90;;;5.45;100.00;98997.94;4976271;28;20546;-67
2023/02/03 05:20:50;;;;;;;8.25;5.47;;;5.90;99.90;;;5.49;100.00;98992.78;4968185;28;20046;-68
2023/02/03 05:23:17;;;;;;;9.10;5.47;;;5.90;99.90;;;5.42;100.00;98976.47;4959112;28;20055;-67
2023/02/03 05:25:45;;;;;;;10.75;5.45;;;5.90;99.90;;;5.38;100.00;98962.75;4963992;28;20053;-68
2023/02/03 05:28:11;;;;;;;9.38;5.45;;;5.90;99.90;;;5.42;100.00;98982.47;4961163;28;20046;-67
2023/02/03 05:30:39;;;;;;;12.10;6.22;;;5.90;99.90;;;5.41;100.00;99009.09;4959549;28;20141;-68
2023/02/03 05:33:06;;;;;;;7.18;4.95;;;5.80;99.90;;;5.32;100.00;99031.38;4959622;28;20051;-68
2023/02/03 05:35:33;;;;;;;5.85;4.20;;;5.90;99.90;;;5.44;100.00;99016.81;4962686;28;20058;-68
2023/02/03 05:38:01;;;;;;;9.20;5.80;;;5.90;99.90;;;5.39;100.00;99018.53;4978436;28;20057;-68
2023/02/03 05:43:13;;;;;;;13.82;6.93;;;5.90;99.90;;;5.37;100.00;99006.50;4962087;28;20061;-68
2023/02/03 05:45:41;;;;;;;7.75;5.53;;;5.90;99.90;;;5.69;100.00;99008.25;4974789;28;20058;-67
2023/02/03 05:48:11;;;;;;;12.65;6.55;;;5.90;99.90;;;5.55;100.00;99001.38;4962322;28;20086;-68
2023/02/03 05:50:38;;;;;;;13.32;4.80;;;5.90;99.90;;;5.51;100.00;99002.22;4945837;28;20054;-68
2023/02/03 05:53:06;;;;;;;10.05;5.13;;;5.90;99.90;;;5.42;100.00;99015.94;4962332;28;20506;-68
2023/02/03 05:55:35;;;;;;;7.43;4.05;;;5.90;99.90;;;5.50;100.00;99015.13;4961861;28;20418;-68
2023/02/03 05:58:01;;;;;;;7.35;4.25;;;5.90;99.90;;;5.55;100.00;99003.09;4979512;28;20490;-68
2023/02/03 06:00:29;;;;;;;9.50;4.45;;;5.90;99.90;;;5.56;100.00;99000.50;4974603;28;20047;-68
2023/02/03 06:03:01;;;;;;;9.10;4.45;;;5.90;99.90;;;5.55;100.00;99001.38;4961028;28;20050;-68
2023/02/03 06:05:30;;;;;;;8.55;4.70;;;5.90;99.90;;;5.52;100.00;99021.09;4960672;28;20212;-68
2023/02/03 06:07:58;;;;;;;8.05;4.95;;;5.90;99.90;;;5.56;100.00;99005.63;4961731;28;20546;-68
2023/02/03 06:10:26;;;;;;;7.13;3.80;;;5.90;99.90;;;5.58;100.00;99005.66;4958960;28;20138;-68
2023/02/03 06:12:54;;;;;;;8.65;4.65;;;5.90;99.90;;;5.65;100.00;99000.50;4957953;28;20051;-67
2023/02/03 06:15:22;;;;;;;8.18;4.50;;;5.90;99.90;;;5.60;100.00;99009.09;4957897;28;20059;-67
2023/02/03 06:17:49;;;;;;;8.60;4.20;;;5.90;99.90;;;5.50;100.00;99008.25;4961915;28;20125;-68
2023/02/03 06:20:18;;;;;;;5.88;4.07;;;5.90;99.90;;;5.66;100.00;98996.22;4959585;28;20422;-68
2023/02/03 06:22:46;;;;;;;11.90;5.03;;;5.90;99.90;;;5.65;100.00;99017.66;4959899;28;20042;-67
2023/02/03 06:25:13;;;;;;;12.00;4.07;;;5.90;99.90;;;5.58;100.00;99006.50;4958187;28;20066;-67
2023/02/03 06:27:41;;;;;;;9.60;5.13;;;5.90;99.90;;;5.67;100.00;99064.91;4947845;28;20066;-68
2023/02/03 06:30:10;;;;;;;6.35;4.68;;;5.90;99.90;;;5.56;100.00;99070.03;4964148;28;20141;-68
2023/02/03 06:32:37;;;;;;;9.68;3.88;;;6.00;99.90;;;5.49;100.00;99075.19;4961263;28;20055;-68
2023/02/03 06:35:04;;;;;;;8.98;4.68;;;5.90;99.90;;;5.48;100.00;99037.44;4963341;28;20399;-68
2023/02/03 06:37:32;;;;;;;9.57;5.90;;;5.90;99.90;;;5.60;100.00;99020.25;4962033;28;20063;-68
2023/02/03 06:39:59;;;;;;;6.85;4.40;;;5.90;99.90;;;5.54;100.00;99019.38;4960121;28;20065;-68
2023/02/03 06:42:26;;;;;;;7.90;4.45;;;5.80;99.90;;;5.45;100.00;99028.84;4962037;28;20515;-68
2023/02/03 06:44:53;;;;;;;11.50;5.28;;;5.80;99.90;;;5.58;100.00;99003.94;4962884;28;20465;-68
2023/02/03 06:47:20;;;;;;;6.57;5.03;;;5.80;99.90;;;5.45;100.00;98997.06;4960572;28;20046;-67
2023/02/03 06:49:48;;;;;;;7.35;4.65;;;5.80;99.90;;;5.38;100.00;98992.75;4959259;28;20070;-68
2023/02/03 06:52:15;;;;;;;8.82;3.75;;;5.80;99.90;;;5.48;100.00;98985.91;4957565;28;20145;-67
2023/02/03 06:54:41;;;;;;;9.48;4.38;;;5.90;99.90;;;5.44;100.00;98985.03;4962450;28;20158;-67
2023/02/03 06:57:08;;;;;;;7.72;4.53;;;5.80;99.90;;;5.50;100.00;98971.34;4961225;28;20501;-68
2023/02/03 06:59:35;;;;;;;8.90;4.75;;;5.90;99.90;;;5.50;100.00;98971.34;4960113;28;20134;-68
2023/02/03 07:02:03;;;;;;;6.97;4.97;;;5.80;99.90;;;5.49;100.00;98987.63;4959354;28;20042;-68
2023/02/03 07:04:30;;;;;;;7.10;4.47;;;5.80;99.90;;;5.47;100.00;98984.19;4960132;28;20422;-68
2023/02/03 07:06:57;;;;;;;6.28;4.22;;;5.80;99.90;;;5.49;100.00;98979.91;4959995;28;20076;-68
2023/02/03 07:09:24;;;;;;;9.80;4.30;;;5.80;99.90;;;5.51;100.00;98985.91;4959433;28;20058;-68
2023/02/03 07:11:51;;;;;;;8.05;3.78;;;5.80;99.90;;;5.57;100.00;98994.50;4958276;28;20047;-68
2023/02/03 07:14:18;;;;;;;7.03;3.70;;;5.80;99.90;;;5.49;100.00;98993.63;4962015;28;20061;-68
2023/02/03 07:16:45;;;;;;;7.80;4.28;;;5.80;99.90;;;5.52;100.00;99000.50;4953896;28;20146;-68
2023/02/03 07:19:12;;;;;;;7.20;4.13;;;5.90;99.90;;;5.51;100.00;99006.50;4965638;28;20050;-68
2023/02/03 07:21:39;;;;;;;6.50;3.72;;;5.90;99.90;;;5.59;100.00;98997.94;4980386;28;20077;-68
2023/02/03 07:24:06;;;;;;;7.07;3.55;;;5.90;99.90;;;5.59;100.00;98992.78;4962484;28;20493;-68
2023/02/03 07:26:33;;;;;;;5.63;3.63;;;5.90;99.90;;;5.59;100.00;99013.38;4962923;28;20083;-68
2023/02/03 07:29:01;;;;;;;7.15;3.63;;;5.90;99.90;;;5.60;100.00;99017.66;4957505;28;20057;-67
2023/02/03 07:31:28;;;;;;;8.35;3.92;;;5.90;99.90;;;5.59;100.00;99012.53;4965260;28;20513;-68
2023/02/03 07:33:55;;;;;;;7.57;4.28;;;6.00;99.90;;;5.50;100.00;99013.38;4962104;28;20082;-67
2023/02/03 07:36:23;;;;;;;6.70;4.15;;;6.00;99.90;;;5.59;100.00;99015.13;4961999;28;20482;-68
2023/02/03 07:38:50;;;;;;;5.97;3.35;;;6.00;99.90;;;5.65;100.00;99000.50;4962475;28;20105;-67
2023/02/03 07:41:17;;;;;;;7.03;3.72;;;6.00;99.90;;;5.59;100.00;99022.84;4961261;28;20046;-67
2023/02/03 07:43:44;;;;;;;8.90;3.75;;;6.00;99.90;;;5.64;100.00;99015.97;4963441;28;20046;-68
2023/02/03 07:46:11;;;;;;;7.45;3.40;;;6.00;99.90;;;5.63;100.00;99025.41;4963122;28;20039;-67
2023/02/03 07:48:39;;;;;;;7.15;3.75;;;6.00;99.90;;;5.72;100.00;99013.38;4965043;28;20066;-68
2023/02/03 07:51:06;;;;;;;6.85;3.55;;;6.00;99.90;;;5.69;100.00;99028.84;4964774;28;20374;-68
2023/02/03 07:53:33;;;;;;;7.43;4.55;;;5.90;99.90;;;5.62;100.00;99031.41;4961718;28;20100;-68
2023/02/03 07:56:02;;;;;;;8.35;4.78;;;5.90;99.90;;;5.68;100.00;99019.38;4960560;28;20225;-68
2023/02/03 07:58:30;;;;;;;9.60;4.43;;;5.90;99.90;;;5.51;100.00;99035.69;4963342;28;20141;-68
2023/02/03 08:00:58;;;;;;;8.68;4.50;;;6.00;99.90;;;5.55;100.00;99034.00;4962799;28;20058;-67
2023/02/03 08:03:25;;;;;;;5.78;3.85;;;5.90;99.90;;;5.54;100.00;99037.41;4963528;28;20134;-67
2023/02/03 08:05:52;;;;;;;5.45;2.95;;;6.00;99.90;;;5.57;100.00;99045.16;4961068;28;20051;-68
2023/02/03 08:08:19;;;;;;;7.80;3.50;;;6.00;99.90;;;5.52;100.00;99045.16;4965975;28;20050;-68
2023/02/03 08:10:46;;;;;;;5.93;3.53;;;6.00;99.90;;;5.50;100.00;99044.28;4961212;28;20066;-68
2023/02/03 08:13:13;;;;;;;7.38;4.10;;;6.00;99.90;;;5.48;100.00;99053.72;4960711;28;20434;-67
2023/02/03 08:15:41;;;;;;;7.03;3.25;;;6.00;99.90;;;5.59;100.00;99023.69;4960334;28;20050;-67
2023/02/03 08:18:08;;;;;;;5.45;3.60;;;6.00;99.90;;;5.64;100.00;99028.84;4961777;28;20464;-68
2023/02/03 08:20:35;;;;;;;5.13;2.65;;;6.00;99.90;;;5.62;100.00;99027.97;4964082;28;20085;-67
2023/02/03 08:23:02;;;;;;;6.53;3.53;;;6.00;99.90;;;5.56;100.00;99039.13;4965047;28;20062;-67
2023/02/03 08:25:29;;;;;;;7.28;4.05;;;5.90;99.90;;;5.66;100.00;99038.28;4964139;28;20045;-68
2023/02/03 08:27:57;;;;;;;5.45;2.88;;;6.10;99.90;;;5.71;100.00;99038.28;4960644;28;20126;-67
2023/02/03 08:30:25;;;;;;;5.70;2.72;;;6.00;99.90;;;5.60;100.00;99038.28;4974371;28;20173;-67
2023/02/03 08:32:52;;;;;;;4.82;2.92;;;6.10;99.90;;;5.60;100.00;99035.69;4961521;28;20461;-67
2023/02/03 08:35:19;;;;;;;11.02;3.97;;;6.20;99.90;;;5.67;100.00;99036.56;4965331;28;20051;-68
2023/02/03 08:37:46;;;;;;;6.75;3.38;;;6.20;99.90;;;5.68;100.00;99021.97;4964910;28;20046;-68
2023/02/03 08:40:14;;;;;;;7.55;3.80;;;6.20;99.90;;;5.80;100.00;99017.69;4965198;28;20138;-68
2023/02/03 08:42:40;;;;;;;6.18;3.08;;;6.20;99.90;;;5.82;100.00;99028.00;4960608;28;20051;-67
2023/02/03 08:45:08;;;;;;;6.20;3.13;;;6.20;99.90;;;5.83;100.00;99017.66;4960524;28;20354;-68
2023/02/03 08:47:35;;;;;;;4.57;2.88;;;6.20;99.90;;;5.84;100.00;99010.81;4962707;28;20130;-67
2023/02/03 08:50:08;;;;;;;6.03;3.30;;;6.10;99.90;;;5.76;100.00;99002.22;4961597;28;20082;-67
2023/02/03 08:52:36;;;;;;;7.45;4.60;;;6.20;99.90;;;5.74;100.00;99012.53;4967162;28;20105;-68
2023/02/03 08:55:04;;;;;;;8.73;3.92;;;6.20;99.90;;;5.71;100.00;99021.97;4958734;28;20523;-67
2023/02/03 08:57:35;;;;;;;7.15;4.32;;;6.20;99.90;;;5.89;100.00;99021.97;4958507;28;20134;-68
2023/02/03 09:00:05;;;;;;;9.65;3.80;;;6.20;99.90;;;5.85;100.00;99027.97;4963355;28;20118;-67
2023/02/03 09:02:31;;;;;;;6.35;3.55;;;6.20;99.90;;;5.85;100.00;99027.97;4964225;28;20403;-68
2023/02/03 09:04:58;;;;;;;4.00;2.65;;;6.20;99.90;;;5.86;100.00;99032.25;4963945;28;20703;-68
2023/02/03 09:07:26;;;;;;;4.93;3.08;;;6.30;99.90;;;5.84;100.00;99034.00;4961815;28;20073;-68
2023/02/03 09:09:52;;;;;;;6.28;3.78;;;6.20;99.90;;;5.68;100.00;99046.03;4961615;28;20049;-67
2023/02/03 09:12:19;;;;;;;7.45;4.10;;;6.20;99.90;;;5.81;100.00;99041.72;4961930;28;20397;-68
2023/02/03 09:14:47;;;;;;;5.63;3.05;;;6.20;99.90;;;5.73;100.00;99048.59;4961275;28;20090;-67
2023/02/03 09:17:13;;;;;;;6.07;3.03;;;6.20;99.90;;;5.67;100.00;99046.88;4958295;28;20066;-66
2023/02/03 09:19:40;;;;;;;6.32;3.47;;;6.20;99.90;;;5.74;100.00;99050.31;4959880;28;20050;-68
2023/02/03 09:22:07;;;;;;;4.32;2.83;;;6.20;99.90;;;5.72;100.00;99078.63;4962364;28;20308;-67
2023/02/03 09:24:35;;;;;;;7.57;2.97;;;6.10;99.90;;;5.74;100.00;99065.78;4962816;28;20052;-68
2023/02/03 09:27:02;;;;;;;4.60;2.85;;;6.20;99.90;;;5.74;100.00;99052.88;4960295;28;20084;-67
2023/02/03 09:29:29;;;;;;;5.80;2.83;;;6.20;99.90;;;5.74;100.00;99083.81;4962497;28;20058;-68
2023/02/03 09:31:56;;;;;;;4.63;2.53;;;6.20;99.90;;;5.66;100.00;99053.75;4962800;28;20054;-68
2023/02/03 09:34:23;;;;;;;5.45;2.88;;;6.20;99.90;;;5.83;100.00;99027.97;4958867;28;20177;-67
2023/02/03 09:36:50;;;;;;;4.20;2.20;;;6.30;99.90;;;5.84;100.00;99029.72;4961746;28;20051;-68
2023/02/03 09:39:17;;;;;;;4.45;2.63;;;6.30;99.90;;;5.89;100.00;99023.69;4959869;28;20474;-67
2023/02/03 09:42:05;;;;;;;4.20;2.20;;;6.40;99.90;;;5.92;100.00;99014.22;4958312;28;20053;-67
2023/02/03 09:44:50;;;;;;;3.72;1.92;;;6.40;99.90;;;6.23;100.00;99015.09;4959468;28;20059;-67
2023/02/03 09:47:26;;;;;;;5.90;2.03;;;6.40;99.90;;;6.07;100.00;99003.94;4959501;28;20542;-68
2023/02/03 09:50:05;;;;;;;4.70;1.88;;;6.50;99.90;;;6.13;100.00;98997.91;4960652;28;20105;-67
2023/02/03 09:52:40;;;;;;;4.80;1.42;;;6.60;99.90;;;6.17;100.00;99009.94;4960828;28;20057;-70
2023/02/03 09:55:35;;;;;;;5.93;1.60;;;6.60;99.90;;;6.12;100.00;98998.78;4960063;28;20051;-70
2023/02/03 09:58:19;;;;;;;2.58;1.20;;;6.70;99.90;;;6.21;100.00;98987.59;4957112;28;20043;-70
2023/02/03 10:00:52;;;;;;;3.75;1.58;;;6.70;99.90;;;6.12;100.00;98987.63;4956413;28;20492;-69
2023/02/03 10:03:42;;;;;;;4.45;1.60;;;6.70;99.90;;;6.18;100.00;98975.56;4961924;28;20057;-69
2023/02/03 10:06:09;;;;;;;4.93;1.60;;;6.70;99.90;;;6.03;100.00;98965.28;4963248;28;20065;-69
2023/02/03 10:09:06;;;;;;;3.28;1.30;;;6.70;99.90;;;5.97;100.00;98973.88;4960655;28;20073;-70
2023/02/03 10:12:14;;;;;;;2.65;0.98;;;6.60;99.90;;;6.17;100.00;98939.47;4958129;28;20050;-70
2023/02/03 10:15:19;;;;;;;3.30;1.20;;;6.60;99.90;;;6.00;100.00;98997.09;4962189;28;20146;-69
2023/02/03 10:18:13;;;;;;;3.58;1.20;;;6.50;99.90;;;6.01;100.00;98993.63;4960315;28;20058;-69
2023/02/03 10:21:13;;;;;;;3.42;1.20;;;6.50;99.90;;;6.04;100.00;98990.19;4960022;28;20061;-69
2023/02/03 10:23:42;;;;;;;2.47;1.10;;;6.50;99.90;;;6.02;100.00;99016.00;4958135;28;20451;-70
2023/02/03 10:26:30;;;;;;;3.92;1.65;;;6.60;99.90;;;6.20;100.00;98986.75;4959561;28;20050;-70
2023/02/03 10:29:07;;;;;;;2.58;1.48;;;6.50;99.90;;;6.16;100.00;98999.63;4958593;28;20126;-70
2023/02/03 10:31:36;;;;;;;1.98;1.23;;;6.40;99.90;;;6.14;100.00;98988.47;4960170;28;20043;-70
2023/02/03 10:34:13;;;;;;;1.40;0.90;;;6.50;99.90;;;6.18;100.00;98995.31;4958846;28;20070;-69
2023/02/03 10:36:42;;;;;;;3.42;1.60;;;6.50;99.90;;;6.26;100.00;98958.34;4964192;28;20078;-70
2023/02/03 10:39:35;;;;;;;2.53;1.52;;;6.50;99.90;;;6.34;100.00;98958.34;4962271;28;20054;-69
2023/02/03 10:42:04;;;;;;;4.13;1.10;;;6.50;99.90;;;6.37;100.00;98988.41;4959801;28;20061;-70
2023/02/03 10:44:48;;;;;;;2.35;1.30;;;6.50;99.90;;;6.16;100.00;98977.28;4964585;28;20540;-70